createdAt,value
2017-09-30T11:47:28.576Z,9.77
2017-09-30T11:49:57.535Z,11.07
2017-09-30T11:52:26.195Z,10.40
2017-09-30T11:54:54.776Z,10.60
2017-09-30T11:57:24.023Z,9.30
2017-09-30T11:59:53.222Z,10.03
2017-09-30T12:02:22.309Z,9.70
2017-09-30T12:04:50.937Z,9.97
2017-09-30T12:07:19.803Z,8.40
2017-09-30T12:09:48.461Z,11.53
2017-09-30T12:12:16.980Z,9.70
2017-09-30T12:14:45.568Z,9.57
2017-09-30T12:17:14.073Z,8.83
2017-09-30T12:19:45.571Z,9.40
2017-09-30T12:22:29.319Z,8.77
2017-09-30T12:24:57.939Z,9.37
2017-09-30T12:27:27.833Z,8.57
2017-09-30T12:29:56.587Z,9.60
2017-09-30T12:32:25.094Z,8.63
2017-09-30T12:34:53.628Z,9.27
2017-09-30T12:37:22.496Z,8.20
2017-09-30T12:39:51.989Z,8.97
2017-09-30T12:42:21.770Z,8.70
2017-09-30T12:44:51.200Z,9.33
2017-09-30T12:47:20.007Z,8.27
2017-09-30T12:49:48.506Z,8.47
2017-09-30T12:52:17.161Z,8.50
2017-09-30T12:54:45.764Z,8.17
2017-09-30T12:57:14.347Z,9.10
2017-09-30T12:59:43.035Z,8.63
2017-09-30T13:02:11.704Z,7.90
2017-09-30T13:04:41.654Z,8.57
2017-09-30T13:07:10.251Z,8.83
2017-09-30T13:09:42.310Z,7.80
2017-09-30T13:12:11.506Z,8.73
2017-09-30T13:14:40.173Z,8.20
2017-09-30T13:17:12.743Z,8.60
2017-09-30T13:19:41.990Z,7.87
2017-09-30T13:22:13.629Z,8.13
2017-09-30T13:24:43.704Z,8.23
2017-09-30T13:27:12.690Z,8.30
2017-09-30T13:29:41.423Z,8.43
2017-09-30T13:32:11.585Z,7.50
2017-09-30T13:34:41.404Z,8.33
2017-09-30T13:37:10.688Z,8.27
2017-09-30T13:39:39.505Z,7.87
2017-09-30T13:42:08.526Z,7.67
2017-09-30T13:44:37.115Z,8.13
2017-09-30T13:47:05.727Z,8.50
2017-09-30T13:49:34.324Z,8.90
2017-09-30T13:52:02.898Z,7.50
2017-09-30T13:54:31.521Z,7.90
2017-09-30T13:57:00.049Z,7.80
2017-09-30T13:59:28.725Z,8.60
2017-09-30T14:01:57.342Z,7.57
2017-09-30T14:04:25.842Z,7.67
2017-09-30T14:06:54.468Z,7.53
2017-09-30T14:09:22.927Z,7.00
2017-09-30T14:11:51.472Z,7.80
2017-09-30T14:14:19.990Z,7.40
2017-09-30T14:16:48.519Z,6.87
2017-09-30T14:19:16.996Z,7.27
2017-09-30T14:21:45.568Z,6.80
2017-09-30T14:24:14.106Z,7.93
2017-09-30T14:26:42.899Z,8.63
2017-09-30T14:29:11.618Z,8.13
2017-09-30T14:31:40.626Z,6.90
2017-09-30T14:34:09.149Z,6.67
2017-09-30T14:36:37.860Z,7.10
2017-09-30T14:39:06.390Z,6.43
2017-09-30T14:41:34.900Z,7.30
2017-09-30T14:44:03.495Z,7.27
2017-09-30T14:46:32.065Z,6.97
2017-09-30T14:49:00.697Z,6.80
2017-09-30T14:51:29.279Z,7.13
2017-09-30T14:53:57.763Z,6.30
2017-09-30T14:56:26.235Z,6.00
2017-09-30T14:58:54.712Z,6.00
2017-09-30T15:01:23.505Z,7.03
2017-09-30T15:03:51.995Z,6.73
2017-09-30T15:06:20.590Z,6.80
2017-09-30T15:08:49.067Z,6.80
2017-09-30T15:11:17.541Z,7.13
2017-09-30T15:13:46.009Z,6.90
2017-09-30T15:16:14.604Z,7.90
2017-09-30T15:18:43.474Z,7.30
2017-09-30T15:21:12.624Z,6.93
2017-09-30T15:23:41.591Z,7.10
2017-09-30T15:26:10.700Z,7.97
2017-09-30T15:28:39.530Z,6.30
2017-09-30T15:31:08.472Z,6.90
2017-09-30T15:33:38.218Z,7.03
2017-09-30T15:36:06.864Z,6.13
2017-09-30T15:38:36.051Z,7.13
2017-09-30T15:41:05.849Z,7.27
2017-09-30T15:43:34.840Z,6.30
2017-09-30T15:46:04.693Z,6.83
2017-09-30T15:48:34.575Z,6.93
2017-09-30T15:51:04.726Z,7.27
2017-09-30T15:53:34.142Z,5.73
2017-09-30T15:56:14.605Z,6.50
2017-09-30T15:58:47.204Z,6.70
2017-09-30T16:01:16.404Z,6.67
2017-09-30T16:03:45.348Z,7.20
2017-09-30T16:06:37.948Z,6.60
2017-09-30T16:09:06.655Z,6.90
2017-09-30T16:11:35.311Z,6.17
2017-09-30T16:14:05.049Z,6.10
2017-09-30T16:16:34.372Z,6.50
2017-09-30T16:19:03.530Z,6.43
2017-09-30T16:21:32.486Z,7.03
2017-09-30T16:24:01.242Z,7.00
2017-09-30T16:26:38.221Z,7.00
2017-09-30T16:29:07.557Z,7.67
2017-09-30T16:31:38.455Z,6.63
2017-09-30T16:34:07.526Z,6.10
2017-09-30T16:36:36.408Z,6.83
2017-09-30T16:39:05.308Z,7.63
2017-09-30T16:41:34.001Z,7.03
2017-09-30T16:44:03.811Z,8.00
2017-09-30T16:46:33.119Z,7.07
2017-09-30T16:49:01.812Z,8.77
2017-09-30T16:51:30.431Z,8.10
2017-09-30T16:53:59.219Z,8.50
2017-09-30T16:59:15.707Z,8.40
2017-09-30T17:01:48.713Z,9.23
2017-09-30T17:04:17.725Z,9.20
2017-09-30T17:06:47.164Z,8.93
2017-09-30T17:09:16.368Z,11.57
2017-09-30T17:11:49.934Z,10.00
2017-09-30T17:14:20.836Z,9.07
2017-09-30T17:16:52.107Z,11.80
2017-09-30T17:19:20.776Z,12.60
2017-09-30T17:21:49.571Z,10.53
2017-09-30T17:27:13.451Z,10.00
2017-09-30T17:29:42.356Z,9.87
2017-09-30T17:32:10.979Z,11.20
2017-09-30T17:34:39.617Z,11.73
2017-09-30T17:37:08.821Z,11.70
2017-09-30T17:42:28.700Z,9.43
2017-09-30T17:44:58.895Z,11.70
2017-09-30T17:47:27.708Z,12.23
2017-09-30T17:49:56.535Z,11.77
2017-09-30T17:52:25.407Z,13.40
2017-09-30T17:54:56.833Z,11.73
2017-09-30T17:57:38.021Z,12.97
2017-09-30T18:00:12.220Z,12.67
2017-09-30T18:02:42.660Z,12.10
2017-09-30T18:05:19.551Z,12.80
2017-09-30T18:07:48.588Z,12.53
2017-09-30T18:10:27.972Z,11.20
2017-09-30T18:13:10.678Z,13.20
2017-09-30T18:15:42.425Z,13.40
2017-09-30T18:18:11.928Z,11.90
2017-09-30T18:20:42.862Z,10.03
2017-09-30T18:23:15.820Z,11.60
2017-09-30T18:25:52.433Z,12.30
2017-09-30T18:28:31.783Z,12.30
2017-09-30T18:31:03.402Z,11.23
2017-09-30T18:33:32.175Z,11.23
2017-09-30T18:36:01.592Z,11.70
2017-09-30T18:38:34.542Z,11.47
2017-09-30T18:41:03.564Z,11.63
2017-09-30T18:43:32.664Z,12.37
2017-09-30T18:46:04.881Z,10.80
2017-09-30T18:48:33.739Z,10.30
2017-09-30T18:51:02.407Z,12.50
2017-09-30T18:53:30.952Z,12.27
2017-09-30T18:56:07.869Z,10.70
2017-09-30T18:58:42.207Z,10.90
2017-09-30T19:01:20.222Z,11.37
2017-09-30T19:03:52.708Z,11.43
2017-09-30T19:06:22.227Z,9.97
2017-09-30T19:08:50.767Z,10.33
2017-09-30T19:11:19.816Z,10.07
2017-09-30T19:13:48.300Z,11.17
2017-09-30T19:16:17.242Z,10.80
2017-09-30T19:18:46.191Z,11.70
2017-09-30T19:21:15.576Z,11.17
2017-09-30T19:23:44.076Z,9.97
2017-09-30T19:26:12.694Z,11.00
2017-09-30T19:28:41.328Z,10.43
2017-09-30T19:31:09.914Z,10.03
2017-09-30T19:33:38.403Z,9.80
2017-09-30T19:36:07.045Z,10.43
2017-09-30T19:38:35.888Z,10.37
2017-09-30T19:41:04.805Z,10.73
2017-09-30T19:43:33.504Z,10.00
2017-09-30T19:46:02.124Z,10.57
2017-09-30T19:48:30.706Z,8.73
2017-09-30T19:50:59.328Z,10.93
2017-09-30T19:53:27.931Z,8.80
2017-09-30T19:55:56.704Z,9.90
2017-09-30T19:58:25.349Z,9.90
2017-09-30T20:01:45.988Z,9.90
2017-09-30T20:05:18.579Z,9.53
2017-09-30T20:08:03.808Z,9.57
2017-09-30T20:10:32.765Z,9.93
2017-09-30T20:13:02.448Z,10.27
2017-09-30T20:15:36.240Z,10.63
2017-09-30T20:21:22.528Z,8.37
2017-09-30T20:23:52.246Z,9.30
2017-09-30T20:26:22.578Z,10.13
2017-09-30T20:28:55.044Z,9.70
2017-09-30T20:31:25.188Z,9.10
2017-09-30T20:33:54.606Z,9.63
2017-09-30T20:36:29.621Z,9.33
2017-09-30T20:38:58.676Z,9.90
2017-09-30T20:41:28.739Z,9.77
2017-09-30T20:44:00.047Z,10.70
2017-09-30T20:46:41.453Z,9.93
2017-09-30T20:49:17.757Z,9.10
2017-09-30T21:08:41.059Z,10.20
2017-09-30T21:11:41.079Z,9.73
2017-09-30T21:14:09.887Z,9.87
2017-09-30T21:16:38.532Z,11.17
2017-09-30T21:19:07.081Z,9.80
2017-09-30T21:21:35.670Z,9.40
2017-09-30T21:24:04.153Z,11.23
2017-09-30T21:26:32.756Z,9.90
2017-09-30T21:29:01.963Z,8.80
2017-09-30T21:31:31.168Z,10.03
2017-09-30T21:33:59.722Z,10.67
2017-09-30T21:36:28.267Z,9.77
2017-09-30T21:38:57.309Z,10.47
2017-09-30T21:41:25.815Z,8.70
2017-09-30T21:43:54.324Z,9.53
2017-09-30T21:46:23.225Z,11.43
2017-09-30T21:48:51.757Z,11.43
2017-09-30T21:51:20.275Z,9.70
2017-09-30T21:53:48.817Z,10.97
2017-09-30T21:56:17.399Z,11.40
2017-09-30T21:58:46.747Z,10.00
2017-09-30T22:01:15.432Z,11.33
2017-09-30T22:03:44.055Z,11.60
2017-09-30T22:06:12.553Z,11.73
2017-09-30T22:08:41.024Z,10.20
2017-09-30T22:11:09.507Z,11.70
2017-09-30T22:13:38.019Z,10.20
2017-09-30T22:16:06.694Z,11.03
2017-09-30T22:18:35.365Z,12.03
2017-09-30T22:21:03.849Z,10.07
2017-09-30T22:23:32.370Z,11.03
2017-09-30T22:26:00.904Z,10.93
2017-09-30T22:28:29.476Z,9.73
2017-09-30T22:30:58.957Z,11.57
2017-09-30T22:33:27.627Z,11.40
2017-09-30T22:35:56.343Z,11.03
2017-09-30T22:38:25.035Z,12.10
2017-09-30T22:40:53.768Z,11.37
2017-09-30T22:43:22.757Z,12.70
2017-09-30T22:45:51.488Z,13.23
2017-09-30T22:48:20.283Z,12.60
2017-09-30T22:50:48.878Z,11.73
2017-09-30T22:53:17.400Z,10.50
2017-09-30T22:55:45.934Z,12.50
2017-09-30T22:58:14.419Z,13.13
2017-09-30T23:00:43.338Z,13.97
2017-09-30T23:03:12.072Z,11.70
2017-09-30T23:05:40.832Z,10.60
2017-09-30T23:08:09.381Z,11.27
2017-09-30T23:10:37.903Z,11.30
2017-09-30T23:13:06.500Z,11.10
2017-09-30T23:15:35.796Z,11.60
2017-09-30T23:18:04.504Z,12.13
2017-09-30T23:20:33.047Z,13.07
2017-09-30T23:23:01.561Z,11.93
2017-09-30T23:25:30.178Z,11.17
2017-09-30T23:27:58.662Z,10.20
2017-09-30T23:30:27.698Z,12.23
2017-09-30T23:32:56.324Z,11.80
2017-09-30T23:35:24.920Z,12.17
2017-09-30T23:37:53.504Z,12.27
2017-09-30T23:40:22.034Z,12.63
2017-09-30T23:42:53.567Z,11.70
2017-09-30T23:45:22.817Z,10.53
2017-09-30T23:47:51.367Z,12.47
2017-09-30T23:50:19.975Z,10.93
2017-09-30T23:52:48.560Z,11.57
2017-09-30T23:55:17.148Z,10.63
2017-09-30T23:57:45.798Z,13.57
